sensor_id;sensor_type;location;lat;lon;timestamp;P1;durP1;ratioP1;P2;durP2;ratioP2
76795;SDS011;65745;50.278;18.192;2022-12-15T00:01:22;34.30;;;24.60;;
76795;SDS011;65745;50.278;18.192;2022-12-15T00:04:12;34.30;;;23.00;;
76795;SDS011;65745;50.278;18.192;2022-12-15T00:07:02;32.30;;;23.30;;
76795;SDS011;65745;50.278;18.192;2022-12-15T00:09:52;32.30;;;22.40;;
76795;SDS011;65745;50.278;18.192;2022-12-15T00:12:42;35.30;;;24.10;;
76795;SDS011;65745;50.278;18.192;2022-12-15T00:15:31;33.00;;;23.60;;
76795;SDS011;65745;50.278;18.192;2022-12-15T00:18:21;34.40;;;24.60;;
76795;SDS011;65745;50.278;18.192;2022-12-15T00:21:11;35.10;;;22.70;;
76795;SDS011;65745;50.278;18.192;2022-12-15T00:24:01;33.20;;;23.60;;
76795;SDS011;65745;50.278;18.192;2022-12-15T00:26:51;34.30;;;23.60;;
76795;SDS011;65745;50.278;18.192;2022-12-15T00:29:41;33.70;;;23.30;;
76795;SDS011;65745;50.278;18.192;2022-12-15T00:32:30;36.30;;;23.60;;
76795;SDS011;65745;50.278;18.192;2022-12-15T00:35:20;31.60;;;21.70;;
76795;SDS011;65745;50.278;18.192;2022-12-15T00:38:10;38.10;;;24.80;;
76795;SDS011;65745;50.278;18.192;2022-12-15T00:41:01;34.30;;;23.80;;
76795;SDS011;65745;50.278;18.192;2022-12-15T00:43:34;34.90;;;23.70;;
76795;SDS011;65745;50.278;18.192;2022-12-15T00:46:07;35.70;;;24.50;;
76795;SDS011;65745;50.278;18.192;2022-12-15T00:48:57;35.10;;;23.30;;
76795;SDS011;65745;50.278;18.192;2022-12-15T00:51:30;38.80;;;25.60;;
76795;SDS011;65745;50.278;18.192;2022-12-15T00:54:20;32.70;;;22.80;;
76795;SDS011;65745;50.278;18.192;2022-12-15T00:57:09;30.30;;;22.30;;
76795;SDS011;65745;50.278;18.192;2022-12-15T00:59:59;36.10;;;24.80;;
76795;SDS011;65745;50.278;18.192;2022-12-15T01:02:49;32.50;;;21.70;;
76795;SDS011;65745;50.278;18.192;2022-12-15T01:05:39;33.30;;;22.90;;
76795;SDS011;65745;50.278;18.192;2022-12-15T01:08:29;32.60;;;22.90;;
76795;SDS011;65745;50.278;18.192;2022-12-15T01:11:19;33.40;;;24.90;;
76795;SDS011;65745;50.278;18.192;2022-12-15T01:14:08;31.60;;;22.60;;
76795;SDS011;65745;50.278;18.192;2022-12-15T01:16:58;34.10;;;23.90;;
76795;SDS011;65745;50.278;18.192;2022-12-15T01:19:48;33.00;;;23.00;;
76795;SDS011;65745;50.278;18.192;2022-12-15T01:22:38;29.60;;;21.30;;
76795;SDS011;65745;50.278;18.192;2022-12-15T01:25:10;33.80;;;23.80;;
76795;SDS011;65745;50.278;18.192;2022-12-15T01:27:43;32.00;;;22.50;;
76795;SDS011;65745;50.278;18.192;2022-12-15T01:30:16;32.50;;;23.10;;
76795;SDS011;65745;50.278;18.192;2022-12-15T01:32:50;30.90;;;23.40;;
76795;SDS011;65745;50.278;18.192;2022-12-15T01:35:22;33.10;;;23.00;;
76795;SDS011;65745;50.278;18.192;2022-12-15T01:37:55;32.30;;;22.90;;
76795;SDS011;65745;50.278;18.192;2022-12-15T01:40:27;32.30;;;23.00;;
76795;SDS011;65745;50.278;18.192;2022-12-15T01:43:16;33.90;;;23.50;;
76795;SDS011;65745;50.278;18.192;2022-12-15T01:45:52;37.80;;;24.40;;
76795;SDS011;65745;50.278;18.192;2022-12-15T01:48:30;33.00;;;22.70;;
76795;SDS011;65745;50.278;18.192;2022-12-15T01:51:14;32.00;;;22.90;;
76795;SDS011;65745;50.278;18.192;2022-12-15T01:53:53;31.60;;;21.00;;
76795;SDS011;65745;50.278;18.192;2022-12-15T01:56:29;33.10;;;23.20;;
76795;SDS011;65745;50.278;18.192;2022-12-15T01:59:07;32.00;;;23.10;;
76795;SDS011;65745;50.278;18.192;2022-12-15T02:01:43;31.90;;;22.40;;
76795;SDS011;65745;50.278;18.192;2022-12-15T02:04:18;33.00;;;23.50;;
76795;SDS011;65745;50.278;18.192;2022-12-15T02:06:52;32.80;;;22.70;;
76795;SDS011;65745;50.278;18.192;2022-12-15T02:09:24;34.70;;;24.10;;
76795;SDS011;65745;50.278;18.192;2022-12-15T02:11:59;32.30;;;23.80;;
76795;SDS011;65745;50.278;18.192;2022-12-15T02:14:52;33.60;;;23.10;;
76795;SDS011;65745;50.278;18.192;2022-12-15T02:17:33;32.40;;;23.60;;
76795;SDS011;65745;50.278;18.192;2022-12-15T02:20:20;29.90;;;22.80;;
76795;SDS011;65745;50.278;18.192;2022-12-15T02:26:18;35.60;;;23.80;;
76795;SDS011;65745;50.278;18.192;2022-12-15T02:29:21;32.10;;;22.50;;
76795;SDS011;65745;50.278;18.192;2022-12-15T02:32:10;33.00;;;23.30;;
76795;SDS011;65745;50.278;18.192;2022-12-15T02:34:45;33.80;;;23.50;;
76795;SDS011;65745;50.278;18.192;2022-12-15T02:37:22;28.10;;;22.30;;
76795;SDS011;65745;50.278;18.192;2022-12-15T02:39:59;30.70;;;21.70;;
76795;SDS011;65745;50.278;18.192;2022-12-15T02:42:34;33.40;;;23.70;;
76795;SDS011;65745;50.278;18.192;2022-12-15T02:45:12;30.00;;;22.50;;
76795;SDS011;65745;50.278;18.192;2022-12-15T02:47:49;30.80;;;21.50;;
76795;SDS011;65745;50.278;18.192;2022-12-15T02:50:38;31.10;;;22.20;;
76795;SDS011;65745;50.278;18.192;2022-12-15T02:53:24;32.20;;;22.70;;
76795;SDS011;65745;50.278;18.192;2022-12-15T02:56:09;31.50;;;21.50;;
76795;SDS011;65745;50.278;18.192;2022-12-15T02:58:50;31.80;;;22.80;;
76795;SDS011;65745;50.278;18.192;2022-12-15T03:01:33;33.10;;;23.60;;
76795;SDS011;65745;50.278;18.192;2022-12-15T03:04:10;30.30;;;21.40;;
76795;SDS011;65745;50.278;18.192;2022-12-15T03:06:42;33.10;;;23.70;;
76795;SDS011;65745;50.278;18.192;2022-12-15T03:09:15;31.70;;;22.20;;
76795;SDS011;65745;50.278;18.192;2022-12-15T03:11:47;32.10;;;23.40;;
76795;SDS011;65745;50.278;18.192;2022-12-15T03:14:19;31.40;;;22.20;;
76795;SDS011;65745;50.278;18.192;2022-12-15T03:16:53;30.00;;;20.90;;
76795;SDS011;65745;50.278;18.192;2022-12-15T03:19:25;31.20;;;22.20;;
76795;SDS011;65745;50.278;18.192;2022-12-15T03:21:58;31.20;;;21.60;;
76795;SDS011;65745;50.278;18.192;2022-12-15T03:24:30;32.00;;;22.90;;
76795;SDS011;65745;50.278;18.192;2022-12-15T03:27:02;30.90;;;22.00;;
76795;SDS011;65745;50.278;18.192;2022-12-15T03:29:35;28.00;;;21.20;;
76795;SDS011;65745;50.278;18.192;2022-12-15T03:32:07;31.40;;;22.30;;
76795;SDS011;65745;50.278;18.192;2022-12-15T03:34:39;32.60;;;23.50;;
76795;SDS011;65745;50.278;18.192;2022-12-15T03:37:11;31.10;;;23.20;;
76795;SDS011;65745;50.278;18.192;2022-12-15T03:39:43;30.60;;;21.50;;
76795;SDS011;65745;50.278;18.192;2022-12-15T03:42:15;28.90;;;21.40;;
76795;SDS011;65745;50.278;18.192;2022-12-15T03:45:08;28.90;;;20.10;;
76795;SDS011;65745;50.278;18.192;2022-12-15T03:47:40;31.00;;;21.70;;
76795;SDS011;65745;50.278;18.192;2022-12-15T03:50:14;29.60;;;21.80;;
76795;SDS011;65745;50.278;18.192;2022-12-15T03:52:50;31.60;;;22.50;;
76795;SDS011;65745;50.278;18.192;2022-12-15T03:55:24;29.70;;;21.40;;
76795;SDS011;65745;50.278;18.192;2022-12-15T03:57:58;28.10;;;20.70;;
76795;SDS011;65745;50.278;18.192;2022-12-15T04:00:30;29.70;;;20.50;;
76795;SDS011;65745;50.278;18.192;2022-12-15T04:03:02;27.50;;;20.30;;
76795;SDS011;65745;50.278;18.192;2022-12-15T04:05:36;26.50;;;20.30;;
76795;SDS011;65745;50.278;18.192;2022-12-15T04:08:09;28.30;;;21.20;;
76795;SDS011;65745;50.278;18.192;2022-12-15T04:10:41;28.10;;;20.90;;
76795;SDS011;65745;50.278;18.192;2022-12-15T04:13:13;29.40;;;20.90;;
76795;SDS011;65745;50.278;18.192;2022-12-15T04:15:45;25.90;;;19.70;;
76795;SDS011;65745;50.278;18.192;2022-12-15T04:18:17;28.20;;;19.70;;
76795;SDS011;65745;50.278;18.192;2022-12-15T04:20:49;26.70;;;20.40;;
76795;SDS011;65745;50.278;18.192;2022-12-15T04:23:21;26.20;;;19.60;;
76795;SDS011;65745;50.278;18.192;2022-12-15T04:25:53;27.30;;;20.00;;
76795;SDS011;65745;50.278;18.192;2022-12-15T04:28:43;26.00;;;18.50;;
76795;SDS011;65745;50.278;18.192;2022-12-15T04:31:34;25.10;;;19.10;;
76795;SDS011;65745;50.278;18.192;2022-12-15T04:34:23;26.40;;;19.00;;
76795;SDS011;65745;50.278;18.192;2022-12-15T04:37:13;27.20;;;18.60;;
76795;SDS011;65745;50.278;18.192;2022-12-15T04:40:03;25.50;;;18.50;;
76795;SDS011;65745;50.278;18.192;2022-12-15T04:42:55;21.90;;;17.80;;
76795;SDS011;65745;50.278;18.192;2022-12-15T04:45:45;26.40;;;19.80;;
76795;SDS011;65745;50.278;18.192;2022-12-15T04:48:35;26.60;;;18.10;;
76795;SDS011;65745;50.278;18.192;2022-12-15T04:51:25;22.80;;;17.60;;
76795;SDS011;65745;50.278;18.192;2022-12-15T04:54:14;24.50;;;18.60;;
76795;SDS011;65745;50.278;18.192;2022-12-15T04:57:04;23.00;;;18.00;;
76795;SDS011;65745;50.278;18.192;2022-12-15T04:59:54;26.70;;;19.50;;
76795;SDS011;65745;50.278;18.192;2022-12-15T05:02:44;24.40;;;18.40;;
76795;SDS011;65745;50.278;18.192;2022-12-15T05:05:33;24.00;;;17.70;;
76795;SDS011;65745;50.278;18.192;2022-12-15T05:08:23;23.90;;;17.90;;
76795;SDS011;65745;50.278;18.192;2022-12-15T05:11:13;26.80;;;17.80;;
76795;SDS011;65745;50.278;18.192;2022-12-15T05:14:03;25.10;;;17.90;;
76795;SDS011;65745;50.278;18.192;2022-12-15T05:16:53;24.20;;;18.30;;
76795;SDS011;65745;50.278;18.192;2022-12-15T05:19:43;25.20;;;17.50;;
76795;SDS011;65745;50.278;18.192;2022-12-15T05:22:33;22.10;;;17.80;;
76795;SDS011;65745;50.278;18.192;2022-12-15T05:25:22;24.10;;;17.50;;
76795;SDS011;65745;50.278;18.192;2022-12-15T05:28:12;22.30;;;17.60;;
76795;SDS011;65745;50.278;18.192;2022-12-15T05:31:02;23.60;;;18.00;;
76795;SDS011;65745;50.278;18.192;2022-12-15T05:33:55;23.50;;;17.00;;
76795;SDS011;65745;50.278;18.192;2022-12-15T05:36:34;23.70;;;17.10;;
76795;SDS011;65745;50.278;18.192;2022-12-15T05:39:06;23.80;;;18.00;;
76795;SDS011;65745;50.278;18.192;2022-12-15T05:41:38;27.00;;;18.90;;
76795;SDS011;65745;50.278;18.192;2022-12-15T05:44:11;25.40;;;19.30;;
76795;SDS011;65745;50.278;18.192;2022-12-15T05:46:44;21.90;;;16.50;;
76795;SDS011;65745;50.278;18.192;2022-12-15T05:49:16;24.80;;;18.10;;
76795;SDS011;65745;50.278;18.192;2022-12-15T05:51:49;24.10;;;17.70;;
76795;SDS011;65745;50.278;18.192;2022-12-15T05:54:21;20.90;;;16.10;;
76795;SDS011;65745;50.278;18.192;2022-12-15T05:56:54;25.60;;;17.10;;
76795;SDS011;65745;50.278;18.192;2022-12-15T05:59:26;24.60;;;17.10;;
76795;SDS011;65745;50.278;18.192;2022-12-15T06:01:58;22.90;;;17.30;;
76795;SDS011;65745;50.278;18.192;2022-12-15T06:04:30;22.30;;;16.60;;
76795;SDS011;65745;50.278;18.192;2022-12-15T06:07:02;21.70;;;16.10;;
76795;SDS011;65745;50.278;18.192;2022-12-15T06:09:34;23.00;;;16.80;;
76795;SDS011;65745;50.278;18.192;2022-12-15T06:12:07;22.40;;;16.40;;
76795;SDS011;65745;50.278;18.192;2022-12-15T06:14:39;23.20;;;16.60;;
76795;SDS011;65745;50.278;18.192;2022-12-15T06:17:11;21.20;;;15.00;;
76795;SDS011;65745;50.278;18.192;2022-12-15T06:19:43;21.00;;;15.40;;
76795;SDS011;65745;50.278;18.192;2022-12-15T06:22:15;23.30;;;16.00;;
76795;SDS011;65745;50.278;18.192;2022-12-15T06:24:47;23.00;;;17.00;;
76795;SDS011;65745;50.278;18.192;2022-12-15T06:27:20;21.60;;;14.80;;
76795;SDS011;65745;50.278;18.192;2022-12-15T06:29:52;22.50;;;14.60;;
76795;SDS011;65745;50.278;18.192;2022-12-15T06:32:24;21.40;;;15.50;;
76795;SDS011;65745;50.278;18.192;2022-12-15T06:34:56;21.80;;;15.50;;
76795;SDS011;65745;50.278;18.192;2022-12-15T06:37:29;21.20;;;14.90;;
76795;SDS011;65745;50.278;18.192;2022-12-15T06:40:02;21.20;;;16.00;;
76795;SDS011;65745;50.278;18.192;2022-12-15T06:42:35;20.50;;;15.30;;
76795;SDS011;65745;50.278;18.192;2022-12-15T06:45:08;21.20;;;15.20;;
76795;SDS011;65745;50.278;18.192;2022-12-15T06:47:40;20.90;;;15.20;;
76795;SDS011;65745;50.278;18.192;2022-12-15T06:50:12;19.80;;;13.60;;
76795;SDS011;65745;50.278;18.192;2022-12-15T06:52:45;19.00;;;13.70;;
76795;SDS011;65745;50.278;18.192;2022-12-15T06:55:17;20.70;;;14.70;;
76795;SDS011;65745;50.278;18.192;2022-12-15T06:57:50;17.90;;;12.80;;
76795;SDS011;65745;50.278;18.192;2022-12-15T07:00:24;18.10;;;12.80;;
76795;SDS011;65745;50.278;18.192;2022-12-15T07:02:57;17.00;;;12.80;;
76795;SDS011;65745;50.278;18.192;2022-12-15T07:05:30;20.60;;;14.90;;
76795;SDS011;65745;50.278;18.192;2022-12-15T07:08:03;19.50;;;13.90;;
76795;SDS011;65745;50.278;18.192;2022-12-15T07:10:37;20.80;;;15.50;;
76795;SDS011;65745;50.278;18.192;2022-12-15T07:13:10;20.60;;;14.60;;
76795;SDS011;65745;50.278;18.192;2022-12-15T07:15:43;18.70;;;14.60;;
76795;SDS011;65745;50.278;18.192;2022-12-15T07:18:18;20.90;;;14.50;;
76795;SDS011;65745;50.278;18.192;2022-12-15T07:20:50;20.90;;;14.10;;
76795;SDS011;65745;50.278;18.192;2022-12-15T07:23:22;17.10;;;13.60;;
76795;SDS011;65745;50.278;18.192;2022-12-15T07:26:14;18.90;;;13.70;;
76795;SDS011;65745;50.278;18.192;2022-12-15T07:28:50;20.20;;;14.70;;
76795;SDS011;65745;50.278;18.192;2022-12-15T07:31:23;17.20;;;13.80;;
76795;SDS011;65745;50.278;18.192;2022-12-15T07:33:57;17.50;;;12.70;;
76795;SDS011;65745;50.278;18.192;2022-12-15T07:36:29;19.40;;;13.50;;
76795;SDS011;65745;50.278;18.192;2022-12-15T07:39:02;17.70;;;13.40;;
76795;SDS011;65745;50.278;18.192;2022-12-15T07:41:36;19.50;;;14.70;;
76795;SDS011;65745;50.278;18.192;2022-12-15T07:44:09;21.80;;;16.00;;
76795;SDS011;65745;50.278;18.192;2022-12-15T07:46:42;21.90;;;15.70;;
76795;SDS011;65745;50.278;18.192;2022-12-15T07:49:17;29.80;;;19.10;;
76795;SDS011;65745;50.278;18.192;2022-12-15T07:51:49;27.20;;;19.40;;
76795;SDS011;65745;50.278;18.192;2022-12-15T07:54:24;25.90;;;18.30;;
76795;SDS011;65745;50.278;18.192;2022-12-15T07:56:57;25.30;;;17.60;;
76795;SDS011;65745;50.278;18.192;2022-12-15T07:59:31;23.90;;;17.50;;
76795;SDS011;65745;50.278;18.192;2022-12-15T08:02:03;34.30;;;23.70;;
76795;SDS011;65745;50.278;18.192;2022-12-15T08:04:36;27.70;;;19.60;;
76795;SDS011;65745;50.278;18.192;2022-12-15T08:07:09;29.30;;;20.80;;
76795;SDS011;65745;50.278;18.192;2022-12-15T08:09:44;26.60;;;19.40;;
76795;SDS011;65745;50.278;18.192;2022-12-15T08:12:16;30.00;;;21.70;;
76795;SDS011;65745;50.278;18.192;2022-12-15T08:14:49;27.40;;;20.40;;
76795;SDS011;65745;50.278;18.192;2022-12-15T08:17:22;28.70;;;19.80;;
76795;SDS011;65745;50.278;18.192;2022-12-15T08:19:55;29.90;;;20.90;;
76795;SDS011;65745;50.278;18.192;2022-12-15T08:22:34;28.40;;;20.70;;
76795;SDS011;65745;50.278;18.192;2022-12-15T08:25:06;28.80;;;19.40;;
76795;SDS011;65745;50.278;18.192;2022-12-15T08:27:39;25.30;;;19.60;;
76795;SDS011;65745;50.278;18.192;2022-12-15T08:30:12;26.40;;;18.60;;
76795;SDS011;65745;50.278;18.192;2022-12-15T08:32:44;27.20;;;18.90;;
76795;SDS011;65745;50.278;18.192;2022-12-15T08:35:20;26.20;;;19.20;;
76795;SDS011;65745;50.278;18.192;2022-12-15T08:38:13;26.20;;;18.80;;
76795;SDS011;65745;50.278;18.192;2022-12-15T08:40:45;26.00;;;18.30;;
76795;SDS011;65745;50.278;18.192;2022-12-15T08:43:17;25.40;;;17.60;;
76795;SDS011;65745;50.278;18.192;2022-12-15T08:45:49;23.40;;;17.30;;
76795;SDS011;65745;50.278;18.192;2022-12-15T08:48:22;23.60;;;17.50;;
76795;SDS011;65745;50.278;18.192;2022-12-15T08:50:55;23.20;;;18.10;;
76795;SDS011;65745;50.278;18.192;2022-12-15T08:53:28;23.50;;;17.70;;
76795;SDS011;65745;50.278;18.192;2022-12-15T08:56:05;27.60;;;17.20;;
76795;SDS011;65745;50.278;18.192;2022-12-15T08:58:40;22.10;;;16.80;;
76795;SDS011;65745;50.278;18.192;2022-12-15T09:01:13;23.20;;;17.60;;
76795;SDS011;65745;50.278;18.192;2022-12-15T09:03:52;24.80;;;17.90;;
76795;SDS011;65745;50.278;18.192;2022-12-15T09:06:26;23.60;;;17.90;;
76795;SDS011;65745;50.278;18.192;2022-12-15T09:11:33;24.40;;;17.70;;
76795;SDS011;65745;50.278;18.192;2022-12-15T09:14:06;25.40;;;18.00;;
76795;SDS011;65745;50.278;18.192;2022-12-15T09:16:38;25.70;;;18.30;;
76795;SDS011;65745;50.278;18.192;2022-12-15T09:19:10;24.60;;;17.70;;
76795;SDS011;65745;50.278;18.192;2022-12-15T09:21:43;24.10;;;18.10;;
76795;SDS011;65745;50.278;18.192;2022-12-15T09:24:16;23.60;;;18.10;;
76795;SDS011;65745;50.278;18.192;2022-12-15T09:27:00;22.60;;;15.80;;
76795;SDS011;65745;50.278;18.192;2022-12-15T09:29:33;24.50;;;16.60;;
76795;SDS011;65745;50.278;18.192;2022-12-15T09:32:06;21.30;;;16.40;;
76795;SDS011;65745;50.278;18.192;2022-12-15T09:34:42;25.00;;;18.30;;
76795;SDS011;65745;50.278;18.192;2022-12-15T09:37:18;27.90;;;18.70;;
76795;SDS011;65745;50.278;18.192;2022-12-15T09:39:52;26.60;;;19.60;;
76795;SDS011;65745;50.278;18.192;2022-12-15T09:42:24;26.50;;;20.00;;
76795;SDS011;65745;50.278;18.192;2022-12-15T09:45:00;28.40;;;20.80;;
76795;SDS011;65745;50.278;18.192;2022-12-15T09:47:41;30.00;;;21.70;;
76795;SDS011;65745;50.278;18.192;2022-12-15T09:50:29;32.50;;;22.70;;
76795;SDS011;65745;50.278;18.192;2022-12-15T09:53:07;27.50;;;20.00;;
76795;SDS011;65745;50.278;18.192;2022-12-15T09:56:05;26.90;;;19.20;;
76795;SDS011;65745;50.278;18.192;2022-12-15T09:58:50;27.90;;;20.80;;
76795;SDS011;65745;50.278;18.192;2022-12-15T10:01:30;26.20;;;18.70;;
76795;SDS011;65745;50.278;18.192;2022-12-15T10:04:15;25.10;;;17.80;;
76795;SDS011;65745;50.278;18.192;2022-12-15T10:07:05;30.30;;;19.50;;
76795;SDS011;65745;50.278;18.192;2022-12-15T10:09:45;27.20;;;20.00;;
76795;SDS011;65745;50.278;18.192;2022-12-15T10:12:19;24.90;;;17.30;;
76795;SDS011;65745;50.278;18.192;2022-12-15T10:15:02;26.40;;;18.00;;
76795;SDS011;65745;50.278;18.192;2022-12-15T10:17:45;26.30;;;18.20;;
76795;SDS011;65745;50.278;18.192;2022-12-15T10:20:26;26.80;;;18.30;;
76795;SDS011;65745;50.278;18.192;2022-12-15T10:25:46;25.90;;;17.40;;
76795;SDS011;65745;50.278;18.192;2022-12-15T10:28:30;24.50;;;17.60;;
76795;SDS011;65745;50.278;18.192;2022-12-15T10:31:21;25.60;;;18.50;;
76795;SDS011;65745;50.278;18.192;2022-12-15T10:34:03;24.60;;;18.00;;
76795;SDS011;65745;50.278;18.192;2022-12-15T10:36:50;32.20;;;19.30;;
76795;SDS011;65745;50.278;18.192;2022-12-15T10:39:28;25.70;;;18.40;;
76795;SDS011;65745;50.278;18.192;2022-12-15T10:42:13;29.00;;;19.20;;
76795;SDS011;65745;50.278;18.192;2022-12-15T10:44:49;25.40;;;17.00;;
76795;SDS011;65745;50.278;18.192;2022-12-15T10:47:23;25.50;;;18.40;;
76795;SDS011;65745;50.278;18.192;2022-12-15T10:52:53;25.30;;;18.30;;
76795;SDS011;65745;50.278;18.192;2022-12-15T10:55:30;25.10;;;17.00;;
76795;SDS011;65745;50.278;18.192;2022-12-15T10:58:14;25.50;;;17.70;;
76795;SDS011;65745;50.278;18.192;2022-12-15T11:00:49;24.40;;;17.00;;
76795;SDS011;65745;50.278;18.192;2022-12-15T11:03:37;22.00;;;16.20;;
76795;SDS011;65745;50.278;18.192;2022-12-15T11:06:13;22.80;;;15.50;;
76795;SDS011;65745;50.278;18.192;2022-12-15T11:08:47;24.00;;;16.70;;
76795;SDS011;65745;50.278;18.192;2022-12-15T11:11:29;23.30;;;16.40;;
76795;SDS011;65745;50.278;18.192;2022-12-15T11:14:21;22.30;;;15.80;;
76795;SDS011;65745;50.278;18.192;2022-12-15T11:16:57;20.60;;;16.50;;
76795;SDS011;65745;50.278;18.192;2022-12-15T11:19:32;22.90;;;16.30;;
76795;SDS011;65745;50.278;18.192;2022-12-15T11:22:11;22.60;;;16.40;;
76795;SDS011;65745;50.278;18.192;2022-12-15T11:24:52;23.20;;;16.80;;
76795;SDS011;65745;50.278;18.192;2022-12-15T11:27:31;25.50;;;16.80;;
76795;SDS011;65745;50.278;18.192;2022-12-15T11:30:10;23.00;;;15.40;;
76795;SDS011;65745;50.278;18.192;2022-12-15T11:32:45;22.20;;;15.30;;
76795;SDS011;65745;50.278;18.192;2022-12-15T11:35:24;21.10;;;15.10;;
76795;SDS011;65745;50.278;18.192;2022-12-15T11:38:03;27.50;;;19.40;;
76795;SDS011;65745;50.278;18.192;2022-12-15T11:40:44;24.80;;;18.30;;
76795;SDS011;65745;50.278;18.192;2022-12-15T11:46:51;28.20;;;18.70;;
76795;SDS011;65745;50.278;18.192;2022-12-15T11:55:42;24.30;;;17.70;;
76795;SDS011;65745;50.278;18.192;2022-12-15T11:58:26;29.20;;;20.10;;
76795;SDS011;65745;50.278;18.192;2022-12-15T12:01:19;26.20;;;19.00;;
76795;SDS011;65745;50.278;18.192;2022-12-15T12:04:07;26.20;;;19.30;;
76795;SDS011;65745;50.278;18.192;2022-12-15T12:06:53;27.80;;;19.80;;
76795;SDS011;65745;50.278;18.192;2022-12-15T12:09:33;26.70;;;18.90;;
76795;SDS011;65745;50.278;18.192;2022-12-15T12:12:18;28.20;;;18.50;;
76795;SDS011;65745;50.278;18.192;2022-12-15T12:15:00;27.30;;;19.40;;
76795;SDS011;65745;50.278;18.192;2022-12-15T12:17:51;27.40;;;17.80;;
76795;SDS011;65745;50.278;18.192;2022-12-15T12:20:28;23.10;;;17.70;;
76795;SDS011;65745;50.278;18.192;2022-12-15T12:23:12;25.00;;;18.60;;
76795;SDS011;65745;50.278;18.192;2022-12-15T12:25:50;24.20;;;17.80;;
76795;SDS011;65745;50.278;18.192;2022-12-15T12:28:34;25.60;;;17.60;;
76795;SDS011;65745;50.278;18.192;2022-12-15T12:31:21;21.30;;;16.80;;
76795;SDS011;65745;50.278;18.192;2022-12-15T12:34:02;23.60;;;17.50;;
76795;SDS011;65745;50.278;18.192;2022-12-15T12:36:41;23.30;;;17.50;;
76795;SDS011;65745;50.278;18.192;2022-12-15T12:39:18;24.10;;;16.80;;
76795;SDS011;65745;50.278;18.192;2022-12-15T12:41:56;25.10;;;17.20;;
76795;SDS011;65745;50.278;18.192;2022-12-15T12:44:40;24.80;;;17.60;;
76795;SDS011;65745;50.278;18.192;2022-12-15T12:47:19;23.80;;;17.10;;
76795;SDS011;65745;50.278;18.192;2022-12-15T12:49:55;20.90;;;16.60;;
76795;SDS011;65745;50.278;18.192;2022-12-15T12:52:31;23.10;;;17.10;;
76795;SDS011;65745;50.278;18.192;2022-12-15T12:55:19;24.00;;;16.90;;
76795;SDS011;65745;50.278;18.192;2022-12-15T12:57:55;21.90;;;17.00;;
76795;SDS011;65745;50.278;18.192;2022-12-15T13:00:28;21.80;;;16.40;;
76795;SDS011;65745;50.278;18.192;2022-12-15T13:05:50;23.10;;;17.40;;
76795;SDS011;65745;50.278;18.192;2022-12-15T13:08:43;24.40;;;17.10;;
76795;SDS011;65745;50.278;18.192;2022-12-15T13:17:25;27.10;;;19.80;;
76795;SDS011;65745;50.278;18.192;2022-12-15T13:20:05;29.40;;;20.70;;
76795;SDS011;65745;50.278;18.192;2022-12-15T13:22:50;28.30;;;19.80;;
76795;SDS011;65745;50.278;18.192;2022-12-15T13:25:33;28.90;;;19.60;;
76795;SDS011;65745;50.278;18.192;2022-12-15T13:28:24;28.60;;;21.10;;
76795;SDS011;65745;50.278;18.192;2022-12-15T13:34:13;27.00;;;20.20;;
76795;SDS011;65745;50.278;18.192;2022-12-15T13:36:51;26.80;;;19.60;;
76795;SDS011;65745;50.278;18.192;2022-12-15T13:42:34;28.80;;;20.30;;
76795;SDS011;65745;50.278;18.192;2022-12-15T13:48:32;27.90;;;19.90;;
76795;SDS011;65745;50.278;18.192;2022-12-15T13:54:00;26.60;;;20.10;;
76795;SDS011;65745;50.278;18.192;2022-12-15T13:56:51;29.20;;;20.60;;
76795;SDS011;65745;50.278;18.192;2022-12-15T13:59:33;25.60;;;19.50;;
76795;SDS011;65745;50.278;18.192;2022-12-15T14:05:05;29.20;;;20.50;;
76795;SDS011;65745;50.278;18.192;2022-12-15T14:07:42;26.80;;;19.20;;
76795;SDS011;65745;50.278;18.192;2022-12-15T14:10:24;28.40;;;21.30;;
76795;SDS011;65745;50.278;18.192;2022-12-15T14:13:11;42.40;;;31.30;;
76795;SDS011;65745;50.278;18.192;2022-12-15T14:15:50;44.80;;;35.40;;
76795;SDS011;65745;50.278;18.192;2022-12-15T14:18:26;42.30;;;31.90;;
76795;SDS011;65745;50.278;18.192;2022-12-15T14:21:00;39.30;;;28.70;;
76795;SDS011;65745;50.278;18.192;2022-12-15T14:23:39;38.80;;;29.60;;
76795;SDS011;65745;50.278;18.192;2022-12-15T14:26:32;40.70;;;30.50;;
76795;SDS011;65745;50.278;18.192;2022-12-15T14:29:05;42.20;;;30.90;;
76795;SDS011;65745;50.278;18.192;2022-12-15T14:31:40;39.40;;;29.30;;
76795;SDS011;65745;50.278;18.192;2022-12-15T14:34:14;37.70;;;28.50;;
76795;SDS011;65745;50.278;18.192;2022-12-15T14:36:52;40.20;;;30.10;;
76795;SDS011;65745;50.278;18.192;2022-12-15T14:39:29;36.90;;;28.40;;
76795;SDS011;65745;50.278;18.192;2022-12-15T14:42:12;37.70;;;27.90;;
76795;SDS011;65745;50.278;18.192;2022-12-15T14:44:48;37.70;;;27.10;;
76795;SDS011;65745;50.278;18.192;2022-12-15T14:47:45;39.70;;;28.30;;
76795;SDS011;65745;50.278;18.192;2022-12-15T14:50:45;35.20;;;26.90;;
76795;SDS011;65745;50.278;18.192;2022-12-15T14:53:19;38.70;;;27.30;;
76795;SDS011;65745;50.278;18.192;2022-12-15T14:55:52;37.20;;;27.70;;
76795;SDS011;65745;50.278;18.192;2022-12-15T14:58:27;36.90;;;29.00;;
76795;SDS011;65745;50.278;18.192;2022-12-15T15:01:02;40.80;;;30.30;;
76795;SDS011;65745;50.278;18.192;2022-12-15T15:03:56;35.50;;;27.10;;
76795;SDS011;65745;50.278;18.192;2022-12-15T15:06:30;33.50;;;26.90;;
76795;SDS011;65745;50.278;18.192;2022-12-15T15:09:18;40.00;;;29.40;;
76795;SDS011;65745;50.278;18.192;2022-12-15T15:11:53;40.30;;;30.00;;
76795;SDS011;65745;50.278;18.192;2022-12-15T15:14:30;39.90;;;28.50;;
76795;SDS011;65745;50.278;18.192;2022-12-15T15:17:13;37.50;;;27.60;;
76795;SDS011;65745;50.278;18.192;2022-12-15T15:19:51;34.30;;;28.70;;
76795;SDS011;65745;50.278;18.192;2022-12-15T15:22:29;36.90;;;27.90;;
76795;SDS011;65745;50.278;18.192;2022-12-15T15:25:25;37.40;;;27.10;;
76795;SDS011;65745;50.278;18.192;2022-12-15T15:28:13;36.60;;;27.50;;
76795;SDS011;65745;50.278;18.192;2022-12-15T15:30:53;34.30;;;24.80;;
76795;SDS011;65745;50.278;18.192;2022-12-15T15:33:28;36.00;;;27.30;;
76795;SDS011;65745;50.278;18.192;2022-12-15T15:36:01;33.00;;;26.50;;
76795;SDS011;65745;50.278;18.192;2022-12-15T15:38:43;34.50;;;26.30;;
76795;SDS011;65745;50.278;18.192;2022-12-15T15:41:21;37.60;;;28.40;;
76795;SDS011;65745;50.278;18.192;2022-12-15T15:43:59;34.50;;;26.30;;
76795;SDS011;65745;50.278;18.192;2022-12-15T15:46:40;35.00;;;26.80;;
76795;SDS011;65745;50.278;18.192;2022-12-15T15:49:16;35.90;;;27.30;;
76795;SDS011;65745;50.278;18.192;2022-12-15T15:51:51;36.00;;;27.60;;
76795;SDS011;65745;50.278;18.192;2022-12-15T15:54:27;35.50;;;26.10;;
76795;SDS011;65745;50.278;18.192;2022-12-15T15:57:03;30.90;;;23.00;;
76795;SDS011;65745;50.278;18.192;2022-12-15T15:59:38;35.20;;;25.50;;
76795;SDS011;65745;50.278;18.192;2022-12-15T16:02:12;35.80;;;26.80;;